Terminal Aerodrome Forecast
Issued by NWS

Home | Current Version | Previous Version | Text Only | Print | Product List | Glossary On
Versions: 1 2 3 4 5 6 7 8 9 10 11 12 13 14 15
000
FTUS41 KPHI 230500
TAFMIV
TAF
KMIV 230533Z 2306/2406 30011G15KT P6SM SCT080
     FM231200 30018G29KT P6SM SCT200
     FM231500 31020G31KT P6SM SCT060
     FM240000 31015G25KT P6SM SKC
     FM240500 31015KT P6SM SKC=

USA.gov is the U.S. government's official web portal to all federal, state and local government web resources and services.